createdAt,value
2023-03-27T00:01:16.948Z,101297.75
2023-03-27T00:03:44.982Z,101305.66
2023-03-27T00:06:16.934Z,101301.34
2023-03-27T00:08:51.960Z,101312.75
2023-03-27T00:11:21.511Z,101315.34
2023-03-27T00:13:54.545Z,101318.06
2023-03-27T00:16:25.456Z,101323.31
2023-03-27T00:18:54.514Z,101325.13
2023-03-27T00:21:22.601Z,101326.16
2023-03-27T00:23:49.886Z,101335.81
2023-03-27T00:26:16.987Z,101340.28
2023-03-27T00:28:44.102Z,101344.72
2023-03-27T00:31:16.925Z,101347.44
2023-03-27T00:33:44.175Z,101339.72
2023-03-27T00:36:11.586Z,101342.38
2023-03-27T00:38:43.539Z,101345.91
2023-03-27T00:41:11.164Z,101340.75
2023-03-27T00:43:43.838Z,101341.59
2023-03-27T00:46:41.704Z,101345.03
2023-03-27T00:49:13.746Z,101358.81
2023-03-27T00:51:43.759Z,101354.31
2023-03-27T00:54:12.743Z,101357.72
2023-03-27T00:56:40.228Z,101362.81
2023-03-27T00:59:14.105Z,101364.47
2023-03-27T01:01:42.526Z,101357.41
2023-03-27T01:04:10.513Z,101371.38
2023-03-27T01:06:39.284Z,101377.47
2023-03-27T01:09:06.527Z,101383.66
2023-03-27T01:11:45.346Z,101381.13
2023-03-27T01:14:41.337Z,101383.72
2023-03-27T01:17:24.485Z,101384.56
2023-03-27T01:20:23.063Z,101389.59
2023-03-27T01:23:03.185Z,101389.38
2023-03-27T01:25:55.902Z,101392.78
2023-03-27T01:29:05.893Z,101402.28
2023-03-27T01:32:08.721Z,101403.16
2023-03-27T01:35:37.073Z,101409.22
2023-03-27T01:38:36.469Z,101426.59
2023-03-27T01:41:24.734Z,101420.56
2023-03-27T01:44:00.864Z,101431.97
2023-03-27T01:46:41.866Z,101432.94
2023-03-27T01:49:31.348Z,101433.91
2023-03-27T01:52:08.233Z,101440.97
2023-03-27T01:54:46.864Z,101448.13
2023-03-27T01:57:22.438Z,101440.38
2023-03-27T02:00:18.031Z,101436.22
2023-03-27T02:03:10.038Z,101441.53
2023-03-27T02:05:46.152Z,101440.69
2023-03-27T02:08:24.820Z,101433.75
2023-03-27T02:10:58.583Z,101438.97
2023-03-27T02:13:59.734Z,101446.78
2023-03-27T02:16:34.031Z,101448.50
2023-03-27T02:19:28.406Z,101462.50
2023-03-27T02:21:55.724Z,101460.72
2023-03-27T02:24:23.098Z,101466.81
2023-03-27T02:27:04.455Z,101466.75
2023-03-27T02:30:07.177Z,101464.09
2023-03-27T02:33:04.157Z,101476.25
2023-03-27T02:35:49.315Z,101473.69
2023-03-27T02:38:41.860Z,101485.00
2023-03-27T02:41:39.097Z,101485.72
2023-03-27T02:44:18.078Z,101490.72
2023-03-27T02:47:07.669Z,101485.22
2023-03-27T02:50:05.800Z,101485.66
2023-03-27T02:52:52.061Z,101490.56
2023-03-27T02:55:27.592Z,101499.78
2023-03-27T02:58:00.580Z,101496.00
2023-03-27T03:00:33.122Z,101499.06
2023-03-27T03:03:27.946Z,101500.56
2023-03-27T03:05:57.338Z,101501.03
2023-03-27T03:08:30.604Z,101512.88
2023-03-27T03:11:03.494Z,101512.63
2023-03-27T03:13:30.872Z,101521.06
2023-03-27T03:15:58.890Z,101516.50
2023-03-27T03:18:26.737Z,101518.00
2023-03-27T03:20:55.483Z,101533.53
2023-03-27T03:23:27.267Z,101536.13
2023-03-27T03:25:56.902Z,101529.97
2023-03-27T03:28:26.127Z,101540.44
2023-03-27T03:30:58.963Z,101537.03
2023-03-27T03:33:28.260Z,101541.47
2023-03-27T03:35:59.037Z,101542.34
2023-03-27T03:38:28.188Z,101548.38
2023-03-27T03:40:58.539Z,101557.03
2023-03-27T03:43:28.712Z,101561.19
2023-03-27T03:45:56.170Z,101563.63
2023-03-27T03:48:23.919Z,101571.50
2023-03-27T03:50:51.030Z,101578.34
2023-03-27T03:53:21.556Z,101579.09
2023-03-27T03:55:53.419Z,101577.25
2023-03-27T03:58:20.844Z,101577.25
2023-03-27T04:01:02.976Z,101587.66
2023-03-27T04:03:32.659Z,101590.31
2023-03-27T04:06:01.353Z,101593.97
2023-03-27T04:08:28.755Z,101604.47
2023-03-27T04:10:56.101Z,101598.44
2023-03-27T04:13:23.929Z,101605.63
2023-03-27T04:15:51.447Z,101603.91
2023-03-27T04:18:19.691Z,101607.56
2023-03-27T04:20:50.922Z,101603.34
2023-03-27T04:23:20.871Z,101613.88
2023-03-27T04:25:48.157Z,101614.75
2023-03-27T04:28:18.300Z,101621.72
2023-03-27T04:30:50.630Z,101621.69
2023-03-27T04:33:21.452Z,101625.78
2023-03-27T04:36:06.177Z,101641.22
2023-03-27T04:38:37.080Z,101643.56
2023-03-27T04:41:06.236Z,101646.88
2023-03-27T04:43:39.393Z,101647.63
2023-03-27T04:46:08.520Z,101651.03
2023-03-27T04:48:39.072Z,101650.97
2023-03-27T04:51:09.446Z,101652.63
2023-03-27T04:53:37.860Z,101669.00
2023-03-27T04:56:06.511Z,101667.09
2023-03-27T04:58:37.728Z,101661.69
2023-03-27T05:01:06.026Z,101672.84
2023-03-27T05:03:43.064Z,101670.09
2023-03-27T05:06:16.833Z,101679.63
2023-03-27T05:08:47.474Z,101672.72
2023-03-27T05:11:18.183Z,101692.75
2023-03-27T05:13:46.982Z,101687.59
2023-03-27T05:16:17.695Z,101691.25
2023-03-27T05:18:46.429Z,101693.16
2023-03-27T05:21:14.963Z,101700.22
2023-03-27T05:23:43.951Z,101714.25
2023-03-27T05:26:12.892Z,101712.59
2023-03-27T05:28:43.268Z,101710.13
2023-03-27T05:31:12.549Z,101714.63
2023-03-27T05:33:41.046Z,101715.66
2023-03-27T05:36:10.010Z,101714.16
2023-03-27T05:38:37.297Z,101724.94
2023-03-27T05:41:04.656Z,101724.31
2023-03-27T05:43:32.292Z,101726.44
2023-03-27T05:45:59.660Z,101726.75
2023-03-27T05:48:27.904Z,101731.41
2023-03-27T05:50:57.297Z,101736.84
2023-03-27T05:53:28.019Z,101735.22
2023-03-27T05:56:03.128Z,101743.09
2023-03-27T05:58:31.673Z,101746.53
2023-03-27T06:01:00.713Z,101749.03
2023-03-27T06:03:35.714Z,101753.34
2023-03-27T06:06:12.447Z,101759.44
2023-03-27T06:08:41.546Z,101758.56
2023-03-27T06:11:10.749Z,101755.06
2023-03-27T06:13:38.213Z,101765.56
2023-03-27T06:16:06.993Z,101763.09
2023-03-27T06:18:34.979Z,101771.22
2023-03-27T06:21:03.748Z,101775.22
2023-03-27T06:23:32.917Z,101781.78
2023-03-27T06:26:00.319Z,101783.16
2023-03-27T06:28:28.630Z,101794.75
2023-03-27T06:30:59.804Z,101798.19
2023-03-27T06:33:31.234Z,101810.28
2023-03-27T06:36:02.112Z,101812.63
2023-03-27T06:38:33.529Z,101828.78
2023-03-27T06:41:04.357Z,101835.41
2023-03-27T06:43:35.192Z,101832.34
2023-03-27T06:46:06.776Z,101841.03
2023-03-27T06:48:37.746Z,101823.63
2023-03-27T06:51:08.508Z,101824.53
2023-03-27T06:53:38.319Z,101826.31
2023-03-27T06:56:06.814Z,101833.28
2023-03-27T06:58:33.875Z,101826.41
2023-03-27T07:01:00.888Z,101831.91
2023-03-27T07:03:28.062Z,101838.31
2023-03-27T07:05:55.889Z,101842.03
2023-03-27T07:08:24.827Z,101846.50
2023-03-27T07:13:24.585Z,101849.06
2023-03-27T07:15:51.778Z,101855.16
2023-03-27T07:18:18.898Z,101864.09
2023-03-27T07:20:48.154Z,101868.53
2023-03-27T07:23:15.533Z,101870.50
2023-03-27T07:25:42.976Z,101866.97
2023-03-27T07:28:16.633Z,101870.00
2023-03-27T07:30:43.887Z,101879.91
2023-03-27T07:33:11.069Z,101869.69
2023-03-27T07:35:46.542Z,101873.50
2023-03-27T07:38:14.743Z,101874.59
2023-03-27T07:40:46.711Z,101880.94
2023-03-27T07:43:14.373Z,101882.00
2023-03-27T07:45:42.135Z,101889.28
2023-03-27T07:48:16.789Z,101885.28
2023-03-27T07:50:45.304Z,101883.78
2023-03-27T07:53:32.715Z,101883.22
2023-03-27T07:56:01.577Z,101892.16
2023-03-27T07:58:29.913Z,101888.16
2023-03-27T08:01:06.346Z,101903.97
2023-03-27T08:03:35.176Z,101895.44
2023-03-27T08:06:03.167Z,101906.88
2023-03-27T08:08:31.281Z,101896.63
2023-03-27T08:11:01.391Z,101909.13
2023-03-27T08:13:29.879Z,101907.75
2023-03-27T08:16:05.969Z,101905.53
2023-03-27T08:18:33.531Z,101909.34
2023-03-27T08:21:03.836Z,101913.09
2023-03-27T08:23:33.628Z,101909.06
2023-03-27T08:26:02.071Z,101911.28
2023-03-27T08:28:31.277Z,101911.13
2023-03-27T08:31:02.761Z,101917.84
2023-03-27T08:33:31.032Z,101919.78
2023-03-27T08:35:58.397Z,101924.19
2023-03-27T08:38:28.627Z,101930.91
2023-03-27T08:41:00.541Z,101928.84
2023-03-27T08:43:44.725Z,101936.53
2023-03-27T08:46:26.146Z,101936.44
2023-03-27T08:48:56.986Z,101934.81
2023-03-27T08:51:34.402Z,101945.41
2023-03-27T08:54:23.565Z,101951.97
2023-03-27T08:56:52.568Z,101950.78
2023-03-27T08:59:22.587Z,101957.16
2023-03-27T09:02:01.330Z,101958.50
2023-03-27T09:04:38.244Z,101957.09
2023-03-27T09:07:13.073Z,101961.88
2023-03-27T09:09:55.653Z,101963.22
2023-03-27T09:12:57.987Z,101969.16
2023-03-27T09:15:30.845Z,101970.19
2023-03-27T09:18:00.600Z,101963.72
2023-03-27T09:20:28.306Z,101981.38
2023-03-27T09:23:12.395Z,101964.69
2023-03-27T09:25:47.754Z,101988.16
2023-03-27T09:29:19.982Z,101985.41
2023-03-27T09:31:51.191Z,101973.06
2023-03-27T09:34:29.974Z,101986.28
2023-03-27T09:36:59.811Z,101989.84
2023-03-27T09:39:33.349Z,102008.00
2023-03-27T09:42:24.066Z,102029.56
2023-03-27T09:44:56.911Z,102044.38
2023-03-27T09:47:58.683Z,102044.75
2023-03-27T09:50:33.865Z,102070.06
2023-03-27T09:53:12.323Z,102047.28
2023-03-27T09:56:14.452Z,102041.63
2023-03-27T09:58:46.234Z,102036.78
2023-03-27T10:01:34.531Z,102033.13
2023-03-27T10:04:10.941Z,102037.75
2023-03-27T10:06:48.282Z,102032.91
2023-03-27T10:09:30.970Z,102034.25
2023-03-27T10:12:21.991Z,102037.94
2023-03-27T10:14:52.775Z,102036.53
2023-03-27T10:17:33.206Z,102043.25
2023-03-27T10:20:10.594Z,102034.94
2023-03-27T10:22:43.629Z,102023.78
2023-03-27T10:25:21.788Z,102046.16
2023-03-27T10:27:55.323Z,102046.56
2023-03-27T10:30:30.732Z,102040.81
2023-03-27T10:32:59.584Z,102044.00
2023-03-27T10:35:31.740Z,102043.88
2023-03-27T10:38:14.283Z,102053.75
2023-03-27T10:40:56.851Z,102045.44
2023-03-27T10:43:40.660Z,102046.72
2023-03-27T10:46:19.873Z,102050.34
2023-03-27T10:49:10.083Z,102041.16
2023-03-27T10:52:11.540Z,102045.63
2023-03-27T10:54:55.140Z,102045.16
2023-03-27T10:57:31.138Z,102052.28
2023-03-27T11:00:19.424Z,102061.06
2023-03-27T11:03:10.346Z,102059.53
2023-03-27T11:05:48.824Z,102058.38
2023-03-27T11:08:54.277Z,102063.75
2023-03-27T11:11:31.295Z,102077.66
2023-03-27T11:14:05.420Z,102073.94
2023-03-27T11:16:52.833Z,102079.03
2023-03-27T11:19:46.993Z,102100.56
2023-03-27T11:22:36.538Z,102115.34
2023-03-27T11:25:24.450Z,102118.38
2023-03-27T11:28:27.667Z,102111.91
2023-03-27T11:31:24.263Z,102116.13
2023-03-27T11:34:11.092Z,102126.34
2023-03-27T11:36:50.400Z,102123.13
2023-03-27T11:39:31.227Z,102115.50
2023-03-27T11:42:02.603Z,102116.84
2023-03-27T11:44:32.125Z,102121.88
2023-03-27T11:47:36.205Z,102116.50
2023-03-27T11:50:30.009Z,102108.72
2023-03-27T11:53:30.480Z,102103.75
2023-03-27T11:56:09.863Z,102107.09
2023-03-27T11:58:44.292Z,102103.41
2023-03-27T12:01:24.036Z,102095.66
2023-03-27T12:04:17.201Z,102107.28
2023-03-27T12:07:15.514Z,102110.19
2023-03-27T12:10:05.019Z,102103.00
2023-03-27T12:12:47.008Z,102102.78
2023-03-27T12:15:47.506Z,102099.41
2023-03-27T12:21:36.379Z,102090.38
2023-03-27T12:24:21.769Z,102096.75
2023-03-27T12:27:07.903Z,102100.19
2023-03-27T12:29:58.953Z,102110.38
2023-03-27T12:32:55.358Z,102118.78
2023-03-27T12:35:31.090Z,102121.94
2023-03-27T12:38:06.327Z,102126.38
2023-03-27T12:40:42.008Z,102133.38
2023-03-27T12:43:22.222Z,102150.06
2023-03-27T12:46:24.527Z,102151.75
2023-03-27T12:48:56.405Z,102197.75
2023-03-27T12:51:51.962Z,102183.31
2023-03-27T12:54:38.650Z,102190.19
2023-03-27T12:57:21.464Z,102164.91
2023-03-27T12:59:48.996Z,102156.06
2023-03-27T13:02:57.605Z,102153.06
2023-03-27T13:06:18.806Z,102142.72
2023-03-27T13:08:54.612Z,102132.25
2023-03-27T13:11:52.967Z,102143.50
2023-03-27T13:14:52.988Z,102131.88
2023-03-27T13:17:48.094Z,102133.91
2023-03-27T13:20:27.286Z,102123.72
2023-03-27T13:23:38.940Z,102125.22
2023-03-27T13:26:59.232Z,102128.63
2023-03-27T13:29:33.280Z,102122.66
2023-03-27T13:32:40.092Z,102126.06
2023-03-27T13:35:20.338Z,102127.34
2023-03-27T13:37:58.703Z,102125.22
2023-03-27T13:40:35.198Z,102140.94
2023-03-27T13:43:26.040Z,102142.00
2023-03-27T13:46:00.028Z,102143.63
2023-03-27T13:48:50.292Z,102151.19
2023-03-27T13:51:58.943Z,102151.53
2023-03-27T13:54:45.540Z,102156.50
2023-03-27T13:57:21.436Z,102149.28
2023-03-27T14:00:31.262Z,102146.50
2023-03-27T14:02:59.168Z,102160.50
2023-03-27T14:05:36.650Z,102163.19
2023-03-27T14:08:29.540Z,102162.56
2023-03-27T14:11:52.990Z,102162.78
2023-03-27T14:14:37.258Z,102153.03
2023-03-27T14:17:25.880Z,102160.72
2023-03-27T14:20:08.127Z,102165.25
2023-03-27T14:22:48.284Z,102154.59
2023-03-27T14:25:26.465Z,102167.75
2023-03-27T14:27:56.420Z,102161.00
2023-03-27T14:30:27.637Z,102162.38
2023-03-27T14:33:04.382Z,102161.38
2023-03-27T14:35:37.465Z,102168.16
2023-03-27T14:38:22.014Z,102170.88
2023-03-27T14:40:52.970Z,102169.53
2023-03-27T14:43:22.975Z,102172.59
2023-03-27T14:45:56.502Z,102167.84
2023-03-27T14:48:33.150Z,102175.25
2023-03-27T14:51:09.448Z,102172.78
2023-03-27T14:53:44.583Z,102191.50
2023-03-27T14:56:30.790Z,102195.44
2023-03-27T14:59:06.672Z,102185.41
2023-03-27T15:01:35.593Z,102196.28
2023-03-27T15:04:07.391Z,102198.81
2023-03-27T15:06:37.567Z,102207.03
2023-03-27T15:09:12.879Z,102204.63
2023-03-27T15:11:44.312Z,102204.44
2023-03-27T15:14:18.837Z,102207.25
2023-03-27T15:17:00.847Z,102205.56
2023-03-27T15:19:35.064Z,102205.56
2023-03-27T15:22:19.087Z,102210.03
2023-03-27T15:25:01.168Z,102220.78
2023-03-27T15:27:34.212Z,102222.00
2023-03-27T15:30:09.939Z,102227.50
2023-03-27T15:32:50.185Z,102229.97
2023-03-27T15:35:34.336Z,102222.06
2023-03-27T15:38:05.329Z,102226.25
2023-03-27T15:40:38.502Z,102226.75
2023-03-27T15:43:22.345Z,102223.28
2023-03-27T15:46:13.436Z,102228.13
2023-03-27T15:48:50.791Z,102237.56
2023-03-27T15:51:22.524Z,102239.31
2023-03-27T15:53:58.224Z,102233.63
2023-03-27T15:56:38.172Z,102238.47
2023-03-27T15:59:09.792Z,102233.88
2023-03-27T16:01:39.743Z,102239.13
2023-03-27T16:04:16.626Z,102242.16
2023-03-27T16:06:54.726Z,102233.09
2023-03-27T16:09:41.178Z,102240.25
2023-03-27T16:12:12.530Z,102235.41
2023-03-27T16:14:49.470Z,102236.91
2023-03-27T16:17:40.581Z,102249.56
2023-03-27T16:20:12.780Z,102256.31
2023-03-27T16:22:40.535Z,102266.69
2023-03-27T16:25:11.427Z,102264.22
2023-03-27T16:27:48.466Z,102264.38
2023-03-27T16:30:30.644Z,102265.22
2023-03-27T16:33:00.034Z,102255.63
2023-03-27T16:35:31.060Z,102262.47
2023-03-27T16:38:00.323Z,102262.00
2023-03-27T16:40:29.009Z,102256.75
2023-03-27T16:42:57.511Z,102269.22
2023-03-27T16:45:27.895Z,102254.13
2023-03-27T16:48:00.405Z,102270.41
2023-03-27T16:50:35.321Z,102268.28
2023-03-27T16:53:04.185Z,102269.28
2023-03-27T16:55:36.924Z,102283.59
2023-03-27T16:58:11.733Z,102276.41
2023-03-27T17:00:46.559Z,102275.44
2023-03-27T17:03:17.587Z,102276.31
2023-03-27T17:05:48.294Z,102280.13
2023-03-27T17:08:21.342Z,102277.38
2023-03-27T17:10:53.941Z,102277.84
2023-03-27T17:13:24.576Z,102282.19
2023-03-27T17:15:57.685Z,102284.75
2023-03-27T17:18:29.302Z,102308.69
2023-03-27T17:21:00.028Z,102302.72
2023-03-27T17:23:31.717Z,102307.16
2023-03-27T17:26:09.249Z,102309.06
2023-03-27T17:28:42.554Z,102314.59
2023-03-27T17:31:13.415Z,102311.47
2023-03-27T17:33:44.077Z,102313.66
2023-03-27T17:36:14.643Z,102311.63
2023-03-27T17:38:44.927Z,102314.75
2023-03-27T17:41:17.174Z,102319.72
2023-03-27T17:43:49.978Z,102317.69
2023-03-27T17:46:18.709Z,102323.56
2023-03-27T17:48:47.327Z,102324.13
2023-03-27T17:51:16.336Z,102321.19
2023-03-27T17:53:45.039Z,102325.31
2023-03-27T17:56:13.626Z,102325.00
2023-03-27T17:58:43.999Z,102329.03
2023-03-27T18:01:21.438Z,102343.53
2023-03-27T18:03:50.479Z,102341.44
2023-03-27T18:06:21.250Z,102347.38
2023-03-27T18:08:49.652Z,102346.25
2023-03-27T18:11:18.912Z,102352.94
2023-03-27T18:13:53.713Z,102354.47
2023-03-27T18:16:23.073Z,102354.16
2023-03-27T18:18:54.317Z,102357.44
2023-03-27T18:21:23.291Z,102358.88
2023-03-27T18:23:53.913Z,102362.16
2023-03-27T18:26:22.427Z,102360.28
2023-03-27T18:28:52.520Z,102371.41
2023-03-27T18:31:21.207Z,102369.44
2023-03-27T18:33:49.815Z,102369.22
2023-03-27T18:36:19.207Z,102371.66
2023-03-27T18:38:49.601Z,102374.88
2023-03-27T18:41:18.798Z,102379.09
2023-03-27T18:43:46.941Z,102370.16
2023-03-27T18:46:17.525Z,102374.38
2023-03-27T18:48:49.335Z,102373.25
2023-03-27T18:51:20.706Z,102383.47
2023-03-27T18:53:49.404Z,102377.19
2023-03-27T18:56:18.648Z,102386.56
2023-03-27T18:58:47.334Z,102381.22
2023-03-27T19:01:16.197Z,102392.44
2023-03-27T19:03:45.030Z,102382.66
2023-03-27T19:06:14.302Z,102386.81
2023-03-27T19:08:48.282Z,102397.91
2023-03-27T19:11:17.391Z,102401.19
2023-03-27T19:13:48.225Z,102394.91
2023-03-27T19:16:16.630Z,102406.03
2023-03-27T19:18:44.562Z,102405.88
2023-03-27T19:21:12.946Z,102407.47
2023-03-27T19:23:41.522Z,102403.81
2023-03-27T19:26:13.520Z,102410.59
2023-03-27T19:28:42.541Z,102404.34
2023-03-27T19:31:13.290Z,102406.78
2023-03-27T19:33:42.524Z,102404.06
2023-03-27T19:36:11.349Z,102404.81
2023-03-27T19:38:40.059Z,102396.75
2023-03-27T19:41:12.539Z,102400.13
2023-03-27T19:43:41.169Z,102399.00
2023-03-27T19:48:43.116Z,102402.94
2023-03-27T19:51:15.090Z,102408.78
2023-03-27T19:53:43.668Z,102402.50
2023-03-27T19:56:11.966Z,102405.78
2023-03-27T19:58:40.812Z,102397.91
2023-03-27T20:01:10.550Z,102399.44
2023-03-27T20:03:39.873Z,102402.03
2023-03-27T20:06:12.278Z,102401.00
2023-03-27T20:08:42.776Z,102405.22
2023-03-27T20:11:11.596Z,102405.16
2023-03-27T20:13:53.249Z,102406.81
2023-03-27T20:16:28.868Z,102413.66
2023-03-27T20:19:04.191Z,102416.09
2023-03-27T20:21:39.510Z,102414.16
2023-03-27T20:24:10.341Z,102411.31
2023-03-27T20:26:40.601Z,102423.31
2023-03-27T20:29:14.972Z,102420.47
2023-03-27T20:31:43.808Z,102415.09
2023-03-27T20:34:12.982Z,102416.69
2023-03-27T20:36:45.869Z,102416.34
2023-03-27T20:39:14.900Z,102417.81
2023-03-27T20:41:47.245Z,102423.69
2023-03-27T20:44:16.077Z,102427.75
2023-03-27T20:46:51.309Z,102426.66
2023-03-27T20:51:59.166Z,102425.09
2023-03-27T20:54:28.761Z,102430.16
2023-03-27T20:56:57.701Z,102427.28
2023-03-27T20:59:29.204Z,102420.97
2023-03-27T21:01:59.804Z,102428.59
2023-03-27T21:04:31.443Z,102422.25
2023-03-27T21:07:00.331Z,102423.72
2023-03-27T21:09:29.369Z,102429.53
2023-03-27T21:11:56.577Z,102431.03
2023-03-27T21:14:24.262Z,102428.91
2023-03-27T21:16:51.517Z,102426.22
2023-03-27T21:19:18.774Z,102433.75
2023-03-27T21:21:46.104Z,102430.91
2023-03-27T21:24:13.531Z,102434.88
2023-03-27T21:26:41.596Z,102435.63
2023-03-27T21:29:11.870Z,102436.25
2023-03-27T21:31:40.152Z,102442.09
2023-03-27T21:34:07.777Z,102442.81
2023-03-27T21:36:37.941Z,102447.94
2023-03-27T21:39:06.809Z,102452.88
2023-03-27T21:41:36.010Z,102447.41
2023-03-27T21:44:03.796Z,102452.19
2023-03-27T21:46:31.666Z,102452.91
2023-03-27T21:48:58.769Z,102442.97
2023-03-27T21:51:26.059Z,102447.09
2023-03-27T21:53:53.323Z,102445.03
2023-03-27T21:56:21.374Z,102448.38
2023-03-27T21:58:48.830Z,102446.38
2023-03-27T22:01:18.026Z,102441.03
2023-03-27T22:03:48.706Z,102448.53
2023-03-27T22:06:19.488Z,102444.88
2023-03-27T22:08:50.203Z,102447.38
2023-03-27T22:11:25.311Z,102441.91
2023-03-27T22:13:59.198Z,102450.22
2023-03-27T22:16:29.872Z,102447.56
2023-03-27T22:19:00.444Z,102449.09
2023-03-27T22:21:31.805Z,102456.69
2023-03-27T22:24:00.486Z,102452.22
2023-03-27T22:26:39.888Z,102466.81
2023-03-27T22:29:11.127Z,102457.16
2023-03-27T22:32:01.633Z,102461.25
2023-03-27T22:34:51.399Z,102461.06
2023-03-27T22:37:43.013Z,102464.41
2023-03-27T22:40:32.110Z,102470.38
2023-03-27T22:43:23.531Z,102471.97
2023-03-27T22:46:17.730Z,102471.81
2023-03-27T22:49:07.857Z,102470.72
2023-03-27T22:51:56.715Z,102475.81
2023-03-27T22:54:47.256Z,102481.56
2023-03-27T22:57:49.154Z,102483.94
2023-03-27T23:00:37.875Z,102487.19
2023-03-27T23:03:27.734Z,102487.88
2023-03-27T23:06:24.794Z,102481.59
2023-03-27T23:09:13.342Z,102488.50
2023-03-27T23:12:01.990Z,102484.81
2023-03-27T23:14:50.631Z,102486.63
2023-03-27T23:17:38.292Z,102486.41
2023-03-27T23:20:27.346Z,102489.81
2023-03-27T23:23:17.183Z,102485.34
2023-03-27T23:26:06.759Z,102499.81
2023-03-27T23:28:54.064Z,102498.00
2023-03-27T23:31:41.836Z,102502.94
2023-03-27T23:34:30.666Z,102502.84
2023-03-27T23:37:19.226Z,102500.03
2023-03-27T23:40:08.572Z,102505.13
2023-03-27T23:43:00.698Z,102503.25
2023-03-27T23:45:48.415Z,102519.50
2023-03-27T23:48:36.840Z,102508.84
2023-03-27T23:51:24.418Z,102512.16
2023-03-27T23:54:11.771Z,102505.88
2023-03-27T23:57:01.549Z,102516.97
2023-03-27T23:59:48.938Z,102506.38
